sensor_id;sensor_type;location;lat;lon;timestamp;P1;durP1;ratioP1;P2;durP2;ratioP2
69310;SDS011;56430;48.154;16.458;2022-08-19T00:01:16;5.80;;;1.50;;
69310;SDS011;56430;48.154;16.458;2022-08-19T00:03:43;9.57;;;1.67;;
69310;SDS011;56430;48.154;16.458;2022-08-19T00:06:11;9.15;;;1.98;;
69310;SDS011;56430;48.154;16.458;2022-08-19T00:08:39;7.43;;;1.50;;
69310;SDS011;56430;48.154;16.458;2022-08-19T00:11:06;5.53;;;1.37;;
69310;SDS011;56430;48.154;16.458;2022-08-19T00:13:33;8.15;;;1.60;;
69310;SDS011;56430;48.154;16.458;2022-08-19T00:16:01;4.30;;;1.40;;
69310;SDS011;56430;48.154;16.458;2022-08-19T00:18:29;5.60;;;1.83;;
69310;SDS011;56430;48.154;16.458;2022-08-19T00:20:56;5.57;;;1.60;;
69310;SDS011;56430;48.154;16.458;2022-08-19T00:23:24;7.45;;;1.80;;
69310;SDS011;56430;48.154;16.458;2022-08-19T00:25:52;6.53;;;1.73;;
69310;SDS011;56430;48.154;16.458;2022-08-19T00:28:19;7.15;;;1.65;;
69310;SDS011;56430;48.154;16.458;2022-08-19T00:30:46;6.57;;;1.88;;
69310;SDS011;56430;48.154;16.458;2022-08-19T00:33:13;7.47;;;2.10;;
69310;SDS011;56430;48.154;16.458;2022-08-19T00:35:42;7.30;;;1.90;;
69310;SDS011;56430;48.154;16.458;2022-08-19T00:38:09;6.43;;;1.45;;
69310;SDS011;56430;48.154;16.458;2022-08-19T00:40:37;10.10;;;1.90;;
69310;SDS011;56430;48.154;16.458;2022-08-19T00:43:07;5.60;;;1.58;;
69310;SDS011;56430;48.154;16.458;2022-08-19T00:45:35;7.78;;;1.80;;
69310;SDS011;56430;48.154;16.458;2022-08-19T00:48:03;10.70;;;1.92;;
69310;SDS011;56430;48.154;16.458;2022-08-19T00:50:31;7.35;;;1.98;;
69310;SDS011;56430;48.154;16.458;2022-08-19T00:52:58;6.57;;;1.80;;
69310;SDS011;56430;48.154;16.458;2022-08-19T00:55:26;5.95;;;1.60;;
69310;SDS011;56430;48.154;16.458;2022-08-19T00:57:56;6.97;;;2.00;;
69310;SDS011;56430;48.154;16.458;2022-08-19T01:00:26;4.20;;;1.37;;
69310;SDS011;56430;48.154;16.458;2022-08-19T01:02:54;7.80;;;1.70;;
69310;SDS011;56430;48.154;16.458;2022-08-19T01:05:22;6.10;;;2.17;;
69310;SDS011;56430;48.154;16.458;2022-08-19T01:07:53;7.50;;;2.00;;
69310;SDS011;56430;48.154;16.458;2022-08-19T01:10:22;7.43;;;2.33;;
69310;SDS011;56430;48.154;16.458;2022-08-19T01:15:45;6.22;;;2.08;;
69310;SDS011;56430;48.154;16.458;2022-08-19T01:18:14;13.13;;;2.53;;
69310;SDS011;56430;48.154;16.458;2022-08-19T01:20:42;8.40;;;2.80;;
69310;SDS011;56430;48.154;16.458;2022-08-19T01:23:11;7.23;;;2.37;;
69310;SDS011;56430;48.154;16.458;2022-08-19T01:25:39;8.20;;;2.60;;
69310;SDS011;56430;48.154;16.458;2022-08-19T01:28:14;8.07;;;1.83;;
69310;SDS011;56430;48.154;16.458;2022-08-19T01:30:43;8.38;;;2.35;;
69310;SDS011;56430;48.154;16.458;2022-08-19T01:33:11;7.38;;;2.45;;
69310;SDS011;56430;48.154;16.458;2022-08-19T01:35:39;7.68;;;2.47;;
69310;SDS011;56430;48.154;16.458;2022-08-19T01:38:08;7.70;;;2.03;;
69310;SDS011;56430;48.154;16.458;2022-08-19T01:40:39;6.57;;;2.20;;
69310;SDS011;56430;48.154;16.458;2022-08-19T01:43:07;6.63;;;2.55;;
69310;SDS011;56430;48.154;16.458;2022-08-19T01:45:35;10.43;;;2.10;;
69310;SDS011;56430;48.154;16.458;2022-08-19T01:48:03;6.87;;;2.63;;
69310;SDS011;56430;48.154;16.458;2022-08-19T01:50:30;7.37;;;2.20;;
69310;SDS011;56430;48.154;16.458;2022-08-19T01:52:59;5.07;;;2.20;;
69310;SDS011;56430;48.154;16.458;2022-08-19T01:55:26;9.05;;;2.58;;
69310;SDS011;56430;48.154;16.458;2022-08-19T01:57:56;9.93;;;2.85;;
69310;SDS011;56430;48.154;16.458;2022-08-19T02:00:25;8.20;;;2.33;;
69310;SDS011;56430;48.154;16.458;2022-08-19T02:02:55;7.15;;;2.30;;
69310;SDS011;56430;48.154;16.458;2022-08-19T02:05:22;7.13;;;2.78;;
69310;SDS011;56430;48.154;16.458;2022-08-19T02:07:49;5.65;;;2.25;;
69310;SDS011;56430;48.154;16.458;2022-08-19T02:10:17;8.17;;;2.23;;
69310;SDS011;56430;48.154;16.458;2022-08-19T02:12:46;5.70;;;2.55;;
69310;SDS011;56430;48.154;16.458;2022-08-19T02:15:16;5.72;;;2.35;;
69310;SDS011;56430;48.154;16.458;2022-08-19T02:17:45;10.65;;;2.20;;
69310;SDS011;56430;48.154;16.458;2022-08-19T02:20:13;7.05;;;2.08;;
69310;SDS011;56430;48.154;16.458;2022-08-19T02:22:40;6.55;;;1.92;;
69310;SDS011;56430;48.154;16.458;2022-08-19T02:25:08;8.38;;;2.25;;
69310;SDS011;56430;48.154;16.458;2022-08-19T02:27:36;8.37;;;2.17;;
69310;SDS011;56430;48.154;16.458;2022-08-19T02:30:04;7.73;;;2.50;;
69310;SDS011;56430;48.154;16.458;2022-08-19T02:32:34;8.65;;;2.30;;
69310;SDS011;56430;48.154;16.458;2022-08-19T02:35:01;8.52;;;2.08;;
69310;SDS011;56430;48.154;16.458;2022-08-19T02:37:28;8.13;;;2.30;;
69310;SDS011;56430;48.154;16.458;2022-08-19T02:40:13;8.02;;;2.38;;
69310;SDS011;56430;48.154;16.458;2022-08-19T02:42:40;6.65;;;2.60;;
69310;SDS011;56430;48.154;16.458;2022-08-19T02:45:08;10.07;;;2.80;;
69310;SDS011;56430;48.154;16.458;2022-08-19T02:47:37;6.57;;;2.10;;
69310;SDS011;56430;48.154;16.458;2022-08-19T02:50:05;8.98;;;2.38;;
69310;SDS011;56430;48.154;16.458;2022-08-19T02:52:33;10.32;;;2.58;;
69310;SDS011;56430;48.154;16.458;2022-08-19T02:55:00;6.20;;;2.15;;
69310;SDS011;56430;48.154;16.458;2022-08-19T02:57:29;6.45;;;2.33;;
69310;SDS011;56430;48.154;16.458;2022-08-19T02:59:57;9.90;;;2.30;;
69310;SDS011;56430;48.154;16.458;2022-08-19T03:02:24;10.30;;;2.77;;
69310;SDS011;56430;48.154;16.458;2022-08-19T03:04:53;7.67;;;2.70;;
69310;SDS011;56430;48.154;16.458;2022-08-19T03:07:20;7.15;;;2.50;;
69310;SDS011;56430;48.154;16.458;2022-08-19T03:09:47;7.60;;;2.20;;
69310;SDS011;56430;48.154;16.458;2022-08-19T03:12:14;10.15;;;2.30;;
69310;SDS011;56430;48.154;16.458;2022-08-19T03:14:41;9.80;;;2.42;;
69310;SDS011;56430;48.154;16.458;2022-08-19T03:17:08;7.15;;;2.10;;
69310;SDS011;56430;48.154;16.458;2022-08-19T03:19:36;5.90;;;2.35;;
69310;SDS011;56430;48.154;16.458;2022-08-19T03:22:05;6.53;;;1.97;;
69310;SDS011;56430;48.154;16.458;2022-08-19T03:24:33;10.70;;;2.42;;
69310;SDS011;56430;48.154;16.458;2022-08-19T03:27:00;8.82;;;2.35;;
69310;SDS011;56430;48.154;16.458;2022-08-19T03:29:30;8.23;;;2.35;;
69310;SDS011;56430;48.154;16.458;2022-08-19T03:31:58;7.70;;;2.33;;
69310;SDS011;56430;48.154;16.458;2022-08-19T03:34:28;9.80;;;2.25;;
69310;SDS011;56430;48.154;16.458;2022-08-19T03:36:57;8.40;;;2.20;;
69310;SDS011;56430;48.154;16.458;2022-08-19T03:39:27;5.80;;;2.63;;
69310;SDS011;56430;48.154;16.458;2022-08-19T03:41:54;10.38;;;2.20;;
69310;SDS011;56430;48.154;16.458;2022-08-19T03:44:25;7.90;;;2.45;;
69310;SDS011;56430;48.154;16.458;2022-08-19T03:46:53;8.63;;;2.38;;
69310;SDS011;56430;48.154;16.458;2022-08-19T03:49:22;8.18;;;2.42;;
69310;SDS011;56430;48.154;16.458;2022-08-19T03:51:50;7.55;;;2.55;;
69310;SDS011;56430;48.154;16.458;2022-08-19T03:54:18;7.72;;;2.83;;
69310;SDS011;56430;48.154;16.458;2022-08-19T03:56:50;7.40;;;2.13;;
69310;SDS011;56430;48.154;16.458;2022-08-19T03:59:20;14.43;;;2.80;;
69310;SDS011;56430;48.154;16.458;2022-08-19T04:01:51;8.68;;;2.10;;
69310;SDS011;56430;48.154;16.458;2022-08-19T04:04:18;9.68;;;2.50;;
69310;SDS011;56430;48.154;16.458;2022-08-19T04:06:45;10.13;;;3.30;;
69310;SDS011;56430;48.154;16.458;2022-08-19T04:09:13;7.90;;;2.85;;
69310;SDS011;56430;48.154;16.458;2022-08-19T04:11:41;7.95;;;2.80;;
69310;SDS011;56430;48.154;16.458;2022-08-19T04:14:12;8.87;;;3.40;;
69310;SDS011;56430;48.154;16.458;2022-08-19T04:16:41;12.02;;;3.13;;
69310;SDS011;56430;48.154;16.458;2022-08-19T04:19:09;10.32;;;2.78;;
69310;SDS011;56430;48.154;16.458;2022-08-19T04:21:37;12.02;;;2.90;;
69310;SDS011;56430;48.154;16.458;2022-08-19T04:24:04;8.40;;;2.60;;
69310;SDS011;56430;48.154;16.458;2022-08-19T04:26:33;9.85;;;2.58;;
69310;SDS011;56430;48.154;16.458;2022-08-19T04:29:04;8.73;;;2.57;;
69310;SDS011;56430;48.154;16.458;2022-08-19T04:31:33;10.20;;;2.72;;
69310;SDS011;56430;48.154;16.458;2022-08-19T04:34:02;8.38;;;2.17;;
69310;SDS011;56430;48.154;16.458;2022-08-19T04:36:32;11.02;;;2.50;;
69310;SDS011;56430;48.154;16.458;2022-08-19T04:39:02;9.70;;;2.30;;
69310;SDS011;56430;48.154;16.458;2022-08-19T04:41:32;10.20;;;2.55;;
69310;SDS011;56430;48.154;16.458;2022-08-19T04:44:17;8.37;;;2.20;;
69310;SDS011;56430;48.154;16.458;2022-08-19T04:46:46;8.63;;;2.37;;
69310;SDS011;56430;48.154;16.458;2022-08-19T04:49:14;11.40;;;2.42;;
69310;SDS011;56430;48.154;16.458;2022-08-19T04:51:42;12.85;;;2.95;;
69310;SDS011;56430;48.154;16.458;2022-08-19T04:54:12;18.00;;;2.75;;
69310;SDS011;56430;48.154;16.458;2022-08-19T04:56:39;11.25;;;2.53;;
69310;SDS011;56430;48.154;16.458;2022-08-19T04:59:07;11.63;;;2.80;;
69310;SDS011;56430;48.154;16.458;2022-08-19T05:01:34;12.68;;;2.85;;
69310;SDS011;56430;48.154;16.458;2022-08-19T05:04:04;9.43;;;3.00;;
69310;SDS011;56430;48.154;16.458;2022-08-19T05:06:32;10.03;;;2.90;;
69310;SDS011;56430;48.154;16.458;2022-08-19T05:09:01;20.45;;;3.55;;
69310;SDS011;56430;48.154;16.458;2022-08-19T05:11:31;9.70;;;2.78;;
69310;SDS011;56430;48.154;16.458;2022-08-19T05:14:00;14.15;;;3.30;;
69310;SDS011;56430;48.154;16.458;2022-08-19T05:16:28;14.75;;;3.28;;
69310;SDS011;56430;48.154;16.458;2022-08-19T05:18:55;14.55;;;2.78;;
69310;SDS011;56430;48.154;16.458;2022-08-19T05:21:42;16.42;;;3.42;;
69310;SDS011;56430;48.154;16.458;2022-08-19T05:24:28;14.80;;;2.40;;
69310;SDS011;56430;48.154;16.458;2022-08-19T05:26:56;9.23;;;2.87;;
69310;SDS011;56430;48.154;16.458;2022-08-19T05:29:24;13.70;;;2.60;;
69310;SDS011;56430;48.154;16.458;2022-08-19T05:31:53;16.77;;;3.10;;
69310;SDS011;56430;48.154;16.458;2022-08-19T05:34:22;12.20;;;3.10;;
69310;SDS011;56430;48.154;16.458;2022-08-19T05:36:53;12.70;;;3.50;;
69310;SDS011;56430;48.154;16.458;2022-08-19T05:39:23;10.45;;;3.28;;
69310;SDS011;56430;48.154;16.458;2022-08-19T05:41:51;12.57;;;3.00;;
69310;SDS011;56430;48.154;16.458;2022-08-19T05:44:19;6.30;;;3.13;;
69310;SDS011;56430;48.154;16.458;2022-08-19T05:46:47;9.57;;;3.60;;
69310;SDS011;56430;48.154;16.458;2022-08-19T05:49:18;11.15;;;3.90;;
69310;SDS011;56430;48.154;16.458;2022-08-19T05:51:47;7.27;;;4.27;;
69310;SDS011;56430;48.154;16.458;2022-08-19T05:54:15;5.47;;;4.10;;
69310;SDS011;56430;48.154;16.458;2022-08-19T05:56:43;9.38;;;4.68;;
69310;SDS011;56430;48.154;16.458;2022-08-19T05:59:13;8.82;;;4.38;;
69310;SDS011;56430;48.154;16.458;2022-08-19T06:01:42;7.43;;;5.00;;
69310;SDS011;56430;48.154;16.458;2022-08-19T06:04:10;8.32;;;4.82;;
69310;SDS011;56430;48.154;16.458;2022-08-19T06:06:39;7.30;;;4.47;;
69310;SDS011;56430;48.154;16.458;2022-08-19T06:09:07;11.70;;;5.05;;
69310;SDS011;56430;48.154;16.458;2022-08-19T06:11:38;8.68;;;4.95;;
69310;SDS011;56430;48.154;16.458;2022-08-19T06:14:08;9.15;;;4.85;;
69310;SDS011;56430;48.154;16.458;2022-08-19T06:16:37;10.23;;;4.83;;
69310;SDS011;56430;48.154;16.458;2022-08-19T06:19:07;10.10;;;4.70;;
69310;SDS011;56430;48.154;16.458;2022-08-19T06:21:36;8.52;;;4.60;;
69310;SDS011;56430;48.154;16.458;2022-08-19T06:24:04;8.13;;;4.60;;
69310;SDS011;56430;48.154;16.458;2022-08-19T06:26:33;10.45;;;4.88;;
69310;SDS011;56430;48.154;16.458;2022-08-19T06:29:03;8.48;;;4.72;;
69310;SDS011;56430;48.154;16.458;2022-08-19T06:31:31;8.13;;;4.45;;
69310;SDS011;56430;48.154;16.458;2022-08-19T06:34:00;9.60;;;4.97;;
69310;SDS011;56430;48.154;16.458;2022-08-19T06:36:31;8.73;;;4.80;;
69310;SDS011;56430;48.154;16.458;2022-08-19T06:38:59;8.70;;;4.30;;
69310;SDS011;56430;48.154;16.458;2022-08-19T06:41:27;10.53;;;4.93;;
69310;SDS011;56430;48.154;16.458;2022-08-19T06:43:55;8.30;;;4.40;;
69310;SDS011;56430;48.154;16.458;2022-08-19T06:46:23;7.38;;;3.95;;
69310;SDS011;56430;48.154;16.458;2022-08-19T06:48:51;11.43;;;3.78;;
69310;SDS011;56430;48.154;16.458;2022-08-19T06:51:20;6.80;;;4.25;;
69310;SDS011;56430;48.154;16.458;2022-08-19T06:53:48;7.53;;;4.05;;
69310;SDS011;56430;48.154;16.458;2022-08-19T06:56:17;7.25;;;3.88;;
69310;SDS011;56430;48.154;16.458;2022-08-19T06:58:46;7.22;;;4.10;;
69310;SDS011;56430;48.154;16.458;2022-08-19T07:01:18;6.60;;;4.13;;
69310;SDS011;56430;48.154;16.458;2022-08-19T07:03:47;9.90;;;4.28;;
69310;SDS011;56430;48.154;16.458;2022-08-19T07:06:15;10.63;;;4.20;;
69310;SDS011;56430;48.154;16.458;2022-08-19T07:08:43;6.73;;;3.80;;
69310;SDS011;56430;48.154;16.458;2022-08-19T07:11:13;8.05;;;4.35;;
69310;SDS011;56430;48.154;16.458;2022-08-19T07:13:42;7.72;;;4.20;;
69310;SDS011;56430;48.154;16.458;2022-08-19T07:16:12;7.25;;;3.90;;
69310;SDS011;56430;48.154;16.458;2022-08-19T07:18:40;6.18;;;3.80;;
69310;SDS011;56430;48.154;16.458;2022-08-19T07:21:10;6.50;;;4.40;;
69310;SDS011;56430;48.154;16.458;2022-08-19T07:23:38;6.65;;;4.68;;
69310;SDS011;56430;48.154;16.458;2022-08-19T07:26:07;9.20;;;4.43;;
69310;SDS011;56430;48.154;16.458;2022-08-19T07:28:36;8.13;;;4.82;;
69310;SDS011;56430;48.154;16.458;2022-08-19T07:31:05;6.90;;;4.10;;
69310;SDS011;56430;48.154;16.458;2022-08-19T07:33:32;8.33;;;4.40;;
69310;SDS011;56430;48.154;16.458;2022-08-19T07:36:02;8.02;;;4.75;;
69310;SDS011;56430;48.154;16.458;2022-08-19T07:38:31;5.93;;;3.92;;
69310;SDS011;56430;48.154;16.458;2022-08-19T07:40:59;5.95;;;4.50;;
69310;SDS011;56430;48.154;16.458;2022-08-19T07:43:26;6.03;;;4.28;;
69310;SDS011;56430;48.154;16.458;2022-08-19T07:45:54;7.25;;;4.35;;
69310;SDS011;56430;48.154;16.458;2022-08-19T07:48:22;13.00;;;4.63;;
69310;SDS011;56430;48.154;16.458;2022-08-19T07:50:51;7.60;;;4.00;;
69310;SDS011;56430;48.154;16.458;2022-08-19T07:53:18;8.45;;;4.10;;
69310;SDS011;56430;48.154;16.458;2022-08-19T07:55:47;10.40;;;4.83;;
69310;SDS011;56430;48.154;16.458;2022-08-19T07:58:15;8.53;;;4.80;;
69310;SDS011;56430;48.154;16.458;2022-08-19T08:00:44;7.82;;;4.38;;
69310;SDS011;56430;48.154;16.458;2022-08-19T08:03:14;9.05;;;4.80;;
69310;SDS011;56430;48.154;16.458;2022-08-19T08:05:42;10.93;;;4.72;;
69310;SDS011;56430;48.154;16.458;2022-08-19T08:08:35;9.57;;;4.90;;
69310;SDS011;56430;48.154;16.458;2022-08-19T08:11:21;5.70;;;4.47;;
69310;SDS011;56430;48.154;16.458;2022-08-19T08:13:48;10.40;;;5.38;;
69310;SDS011;56430;48.154;16.458;2022-08-19T08:16:16;7.00;;;5.20;;
69310;SDS011;56430;48.154;16.458;2022-08-19T08:18:43;8.98;;;5.63;;
69310;SDS011;56430;48.154;16.458;2022-08-19T08:21:11;8.57;;;5.50;;
69310;SDS011;56430;48.154;16.458;2022-08-19T08:23:38;11.20;;;5.70;;
69310;SDS011;56430;48.154;16.458;2022-08-19T08:26:05;11.27;;;6.10;;
69310;SDS011;56430;48.154;16.458;2022-08-19T08:28:34;9.00;;;6.50;;
69310;SDS011;56430;48.154;16.458;2022-08-19T08:31:02;11.20;;;6.20;;
69310;SDS011;56430;48.154;16.458;2022-08-19T08:33:30;7.95;;;6.20;;
69310;SDS011;56430;48.154;16.458;2022-08-19T08:35:57;9.57;;;6.30;;
69310;SDS011;56430;48.154;16.458;2022-08-19T08:38:24;8.15;;;6.03;;
69310;SDS011;56430;48.154;16.458;2022-08-19T08:40:52;7.15;;;6.13;;
69310;SDS011;56430;48.154;16.458;2022-08-19T08:43:23;12.25;;;6.45;;
69310;SDS011;56430;48.154;16.458;2022-08-19T08:45:59;9.83;;;6.10;;
69310;SDS011;56430;48.154;16.458;2022-08-19T08:48:32;15.90;;;6.37;;
69310;SDS011;56430;48.154;16.458;2022-08-19T08:51:03;12.48;;;5.82;;
69310;SDS011;56430;48.154;16.458;2022-08-19T08:53:32;8.35;;;5.72;;
69310;SDS011;56430;48.154;16.458;2022-08-19T08:56:02;10.23;;;6.00;;
69310;SDS011;56430;48.154;16.458;2022-08-19T08:58:42;9.75;;;5.47;;
69310;SDS011;56430;48.154;16.458;2022-08-19T09:01:15;9.90;;;5.95;;
69310;SDS011;56430;48.154;16.458;2022-08-19T09:03:42;6.82;;;6.10;;
69310;SDS011;56430;48.154;16.458;2022-08-19T09:06:12;13.80;;;6.25;;
69310;SDS011;56430;48.154;16.458;2022-08-19T09:08:45;14.75;;;6.82;;
69310;SDS011;56430;48.154;16.458;2022-08-19T09:11:18;14.37;;;6.57;;
69310;SDS011;56430;48.154;16.458;2022-08-19T09:13:49;14.87;;;6.77;;
69310;SDS011;56430;48.154;16.458;2022-08-19T09:16:24;13.52;;;6.78;;
69310;SDS011;56430;48.154;16.458;2022-08-19T09:18:53;10.85;;;6.90;;
69310;SDS011;56430;48.154;16.458;2022-08-19T09:21:23;18.00;;;7.38;;
69310;SDS011;56430;48.154;16.458;2022-08-19T09:23:53;10.82;;;7.30;;
69310;SDS011;56430;48.154;16.458;2022-08-19T09:26:21;13.45;;;6.85;;
69310;SDS011;56430;48.154;16.458;2022-08-19T09:28:49;9.75;;;6.50;;
69310;SDS011;56430;48.154;16.458;2022-08-19T09:31:19;16.27;;;7.45;;
69310;SDS011;56430;48.154;16.458;2022-08-19T09:33:49;10.50;;;6.90;;
69310;SDS011;56430;48.154;16.458;2022-08-19T09:36:18;14.60;;;6.80;;
69310;SDS011;56430;48.154;16.458;2022-08-19T09:38:47;11.93;;;7.43;;
69310;SDS011;56430;48.154;16.458;2022-08-19T09:41:16;9.02;;;7.05;;
69310;SDS011;56430;48.154;16.458;2022-08-19T09:43:46;12.02;;;7.65;;
69310;SDS011;56430;48.154;16.458;2022-08-19T09:46:17;16.02;;;9.20;;
69310;SDS011;56430;48.154;16.458;2022-08-19T09:48:46;11.00;;;7.85;;
69310;SDS011;56430;48.154;16.458;2022-08-19T09:51:16;8.95;;;7.28;;
69310;SDS011;56430;48.154;16.458;2022-08-19T09:53:45;14.95;;;7.55;;
69310;SDS011;56430;48.154;16.458;2022-08-19T09:56:15;16.50;;;7.85;;
69310;SDS011;56430;48.154;16.458;2022-08-19T09:58:43;15.15;;;7.80;;
69310;SDS011;56430;48.154;16.458;2022-08-19T10:01:15;11.03;;;7.33;;
69310;SDS011;56430;48.154;16.458;2022-08-19T10:03:43;11.77;;;7.53;;
69310;SDS011;56430;48.154;16.458;2022-08-19T10:06:10;10.93;;;7.47;;
69310;SDS011;56430;48.154;16.458;2022-08-19T10:08:38;11.65;;;7.75;;
69310;SDS011;56430;48.154;16.458;2022-08-19T10:11:06;8.98;;;7.78;;
69310;SDS011;56430;48.154;16.458;2022-08-19T10:13:33;10.88;;;8.25;;
69310;SDS011;56430;48.154;16.458;2022-08-19T10:16:03;10.50;;;7.03;;
69310;SDS011;56430;48.154;16.458;2022-08-19T10:18:32;8.60;;;7.43;;
69310;SDS011;56430;48.154;16.458;2022-08-19T10:21:04;9.45;;;6.80;;
69310;SDS011;56430;48.154;16.458;2022-08-19T10:23:37;9.60;;;6.90;;
69310;SDS011;56430;48.154;16.458;2022-08-19T10:26:10;10.17;;;6.87;;
69310;SDS011;56430;48.154;16.458;2022-08-19T10:28:38;8.57;;;6.20;;
69310;SDS011;56430;48.154;16.458;2022-08-19T10:31:05;9.93;;;6.60;;
69310;SDS011;56430;48.154;16.458;2022-08-19T10:33:34;11.13;;;6.30;;
69310;SDS011;56430;48.154;16.458;2022-08-19T10:36:02;10.23;;;5.90;;
69310;SDS011;56430;48.154;16.458;2022-08-19T10:38:32;12.40;;;6.22;;
69310;SDS011;56430;48.154;16.458;2022-08-19T10:41:07;15.05;;;5.95;;
69310;SDS011;56430;48.154;16.458;2022-08-19T10:43:35;19.48;;;6.20;;
69310;SDS011;56430;48.154;16.458;2022-08-19T10:46:04;9.18;;;5.07;;
69310;SDS011;56430;48.154;16.458;2022-08-19T10:48:31;12.18;;;6.00;;
69310;SDS011;56430;48.154;16.458;2022-08-19T10:50:59;16.50;;;5.43;;
69310;SDS011;56430;48.154;16.458;2022-08-19T10:53:44;11.07;;;5.47;;
69310;SDS011;56430;48.154;16.458;2022-08-19T10:56:13;8.32;;;5.05;;
69310;SDS011;56430;48.154;16.458;2022-08-19T10:58:57;9.30;;;4.15;;
69310;SDS011;56430;48.154;16.458;2022-08-19T11:01:25;14.18;;;4.32;;
69310;SDS011;56430;48.154;16.458;2022-08-19T11:03:55;25.67;;;5.30;;
69310;SDS011;56430;48.154;16.458;2022-08-19T11:06:23;67.20;;;6.80;;
69310;SDS011;56430;48.154;16.458;2022-08-19T11:08:51;2.17;;;0.50;;
69310;SDS011;56430;48.154;16.458;2022-08-19T11:11:22;1.20;;;0.40;;
69310;SDS011;56430;48.154;16.458;2022-08-19T11:13:49;2.00;;;0.63;;
69310;SDS011;56430;48.154;16.458;2022-08-19T11:16:18;0.80;;;0.20;;
69310;SDS011;56430;48.154;16.458;2022-08-19T11:18:48;0.73;;;0.10;;
69310;SDS011;56430;48.154;16.458;2022-08-19T11:21:17;0.93;;;0.30;;
69310;SDS011;56430;48.154;16.458;2022-08-19T11:23:46;0.52;;;0.10;;
69310;SDS011;56430;48.154;16.458;2022-08-19T11:26:15;0.90;;;0.30;;
69310;SDS011;56430;48.154;16.458;2022-08-19T11:28:44;1.25;;;0.40;;
69310;SDS011;56430;48.154;16.458;2022-08-19T11:31:12;0.70;;;0.10;;
69310;SDS011;56430;48.154;16.458;2022-08-19T11:33:39;0.70;;;0.10;;
69310;SDS011;56430;48.154;16.458;2022-08-19T11:36:07;0.70;;;0.20;;
69310;SDS011;56430;48.154;16.458;2022-08-19T11:38:34;0.60;;;0.10;;
69310;SDS011;56430;48.154;16.458;2022-08-19T11:41:03;0.87;;;0.20;;
69310;SDS011;56430;48.154;16.458;2022-08-19T11:43:32;1.00;;;0.20;;
69310;SDS011;56430;48.154;16.458;2022-08-19T11:46:02;1.05;;;0.38;;
69310;SDS011;56430;48.154;16.458;2022-08-19T11:48:32;0.80;;;0.20;;
69310;SDS011;56430;48.154;16.458;2022-08-19T11:51:02;1.83;;;0.82;;
69310;SDS011;56430;48.154;16.458;2022-08-19T11:53:32;0.98;;;0.50;;
69310;SDS011;56430;48.154;16.458;2022-08-19T11:55:59;1.23;;;0.30;;
69310;SDS011;56430;48.154;16.458;2022-08-19T11:58:26;0.93;;;0.30;;
69310;SDS011;56430;48.154;16.458;2022-08-19T12:00:54;0.80;;;0.17;;
69310;SDS011;56430;48.154;16.458;2022-08-19T12:03:23;1.00;;;0.32;;
69310;SDS011;56430;48.154;16.458;2022-08-19T12:05:50;1.20;;;0.40;;
69310;SDS011;56430;48.154;16.458;2022-08-19T12:08:17;0.90;;;0.20;;
69310;SDS011;56430;48.154;16.458;2022-08-19T12:10:45;0.98;;;0.22;;
69310;SDS011;56430;48.154;16.458;2022-08-19T12:13:12;1.00;;;0.40;;
69310;SDS011;56430;48.154;16.458;2022-08-19T12:15:44;0.85;;;0.20;;
69310;SDS011;56430;48.154;16.458;2022-08-19T12:18:12;0.90;;;0.20;;
69310;SDS011;56430;48.154;16.458;2022-08-19T12:20:42;1.15;;;0.25;;
69310;SDS011;56430;48.154;16.458;2022-08-19T12:23:11;1.00;;;0.30;;
69310;SDS011;56430;48.154;16.458;2022-08-19T12:25:42;1.10;;;0.40;;
69310;SDS011;56430;48.154;16.458;2022-08-19T12:28:15;1.40;;;0.38;;
69310;SDS011;56430;48.154;16.458;2022-08-19T12:30:42;1.57;;;0.53;;
69310;SDS011;56430;48.154;16.458;2022-08-19T12:33:10;1.20;;;0.30;;
69310;SDS011;56430;48.154;16.458;2022-08-19T12:35:39;1.10;;;0.20;;
69310;SDS011;56430;48.154;16.458;2022-08-19T12:38:09;1.10;;;0.30;;
69310;SDS011;56430;48.154;16.458;2022-08-19T12:40:37;0.90;;;0.20;;
69310;SDS011;56430;48.154;16.458;2022-08-19T12:43:04;1.00;;;0.32;;
69310;SDS011;56430;48.154;16.458;2022-08-19T12:45:31;1.40;;;0.38;;
69310;SDS011;56430;48.154;16.458;2022-08-19T12:47:58;1.10;;;0.45;;
69310;SDS011;56430;48.154;16.458;2022-08-19T12:50:26;1.05;;;0.22;;
69310;SDS011;56430;48.154;16.458;2022-08-19T12:52:55;0.98;;;0.30;;
69310;SDS011;56430;48.154;16.458;2022-08-19T12:55:22;1.10;;;0.70;;
69310;SDS011;56430;48.154;16.458;2022-08-19T12:57:50;1.53;;;0.40;;
69310;SDS011;56430;48.154;16.458;2022-08-19T13:00:18;0.70;;;0.10;;
69310;SDS011;56430;48.154;16.458;2022-08-19T13:02:47;7.68;;;2.35;;
69310;SDS011;56430;48.154;16.458;2022-08-19T13:05:19;10.60;;;3.80;;
69310;SDS011;56430;48.154;16.458;2022-08-19T13:07:49;14.77;;;3.55;;
69310;SDS011;56430;48.154;16.458;2022-08-19T13:10:20;11.73;;;3.30;;
69310;SDS011;56430;48.154;16.458;2022-08-19T13:12:48;15.38;;;3.97;;
69310;SDS011;56430;48.154;16.458;2022-08-19T13:15:17;13.73;;;3.28;;
69310;SDS011;56430;48.154;16.458;2022-08-19T13:17:46;15.85;;;3.38;;
69310;SDS011;56430;48.154;16.458;2022-08-19T13:20:14;12.27;;;3.43;;
69310;SDS011;56430;48.154;16.458;2022-08-19T13:22:42;12.90;;;3.50;;
69310;SDS011;56430;48.154;16.458;2022-08-19T13:25:10;10.10;;;3.20;;
69310;SDS011;56430;48.154;16.458;2022-08-19T13:27:39;13.57;;;3.10;;
69310;SDS011;56430;48.154;16.458;2022-08-19T13:30:08;16.05;;;3.83;;
69310;SDS011;56430;48.154;16.458;2022-08-19T13:32:53;12.40;;;3.53;;
69310;SDS011;56430;48.154;16.458;2022-08-19T13:35:41;9.52;;;3.00;;
69310;SDS011;56430;48.154;16.458;2022-08-19T13:38:10;12.00;;;3.30;;
69310;SDS011;56430;48.154;16.458;2022-08-19T13:40:38;11.43;;;3.38;;
69310;SDS011;56430;48.154;16.458;2022-08-19T13:43:08;13.50;;;3.22;;
69310;SDS011;56430;48.154;16.458;2022-08-19T13:45:36;8.73;;;2.70;;
69310;SDS011;56430;48.154;16.458;2022-08-19T13:48:04;12.63;;;3.60;;
69310;SDS011;56430;48.154;16.458;2022-08-19T13:50:34;14.65;;;3.20;;
69310;SDS011;56430;48.154;16.458;2022-08-19T13:53:04;12.55;;;3.72;;
69310;SDS011;56430;48.154;16.458;2022-08-19T13:55:31;8.40;;;3.20;;
69310;SDS011;56430;48.154;16.458;2022-08-19T13:57:59;9.30;;;3.13;;
69310;SDS011;56430;48.154;16.458;2022-08-19T14:00:29;10.00;;;3.53;;
69310;SDS011;56430;48.154;16.458;2022-08-19T14:02:58;10.55;;;3.20;;
69310;SDS011;56430;48.154;16.458;2022-08-19T14:05:26;10.48;;;3.30;;
69310;SDS011;56430;48.154;16.458;2022-08-19T14:07:54;12.07;;;3.30;;
69310;SDS011;56430;48.154;16.458;2022-08-19T14:10:22;14.27;;;3.40;;
69310;SDS011;56430;48.154;16.458;2022-08-19T14:12:52;18.00;;;3.80;;
69310;SDS011;56430;48.154;16.458;2022-08-19T14:15:20;11.57;;;3.10;;
69310;SDS011;56430;48.154;16.458;2022-08-19T14:17:50;10.82;;;3.67;;
69310;SDS011;56430;48.154;16.458;2022-08-19T14:20:17;18.17;;;3.05;;
69310;SDS011;56430;48.154;16.458;2022-08-19T14:22:45;11.98;;;4.25;;
69310;SDS011;56430;48.154;16.458;2022-08-19T14:25:14;16.58;;;3.30;;
69310;SDS011;56430;48.154;16.458;2022-08-19T14:27:43;15.27;;;3.40;;
69310;SDS011;56430;48.154;16.458;2022-08-19T14:30:11;10.88;;;3.65;;
69310;SDS011;56430;48.154;16.458;2022-08-19T14:32:40;15.88;;;4.53;;
69310;SDS011;56430;48.154;16.458;2022-08-19T14:35:11;10.10;;;3.57;;
69310;SDS011;56430;48.154;16.458;2022-08-19T14:37:41;14.17;;;4.67;;
69310;SDS011;56430;48.154;16.458;2022-08-19T14:40:09;9.52;;;3.42;;
69310;SDS011;56430;48.154;16.458;2022-08-19T14:42:37;9.20;;;3.05;;
69310;SDS011;56430;48.154;16.458;2022-08-19T14:45:04;11.32;;;3.13;;